Time;durP1;ratioP1;P1;durP2;ratioP2;P2;SDS_P1;SDS_P2;PMS_P1;PMS_P2;Temp;Humidity;BMP_temperature;BMP_pressure;BME280_temperature;BME280_humidity;BME280_pressure;Samples;Min_cycle;Max_cycle;Signal;HPM_P1;HPM_P2
2022/02/12 00:00:08;;;;;;;1.35;0.35;;;5.20;54.50;;;;;;5025392;28;20636;-72
2022/02/12 00:02:34;;;;;;;0.22;0.10;;;5.50;54.70;;;;;;5027860;28;20630;-72
2022/02/12 00:05:00;;;;;;;0.65;0.20;;;5.20;55.50;;;;;;5026005;28;20041;-72
2022/02/12 00:07:26;;;;;;;0.55;0.20;;;5.00;56.00;;;;;;5030855;28;20072;-71
2022/02/12 00:09:52;;;;;;;0.80;0.22;;;5.30;54.50;;;;;;5027838;28;20026;-72
2022/02/12 00:12:18;;;;;;;1.17;0.50;;;5.40;55.00;;;;;;5027841;28;20037;-72
2022/02/12 00:14:43;;;;;;;0.10;0.10;;;5.10;56.10;;;;;;5029551;28;20512;-71
2022/02/12 00:17:09;;;;;;;1.25;0.20;;;4.90;55.40;;;;;;5028125;28;20237;-71
2022/02/12 00:19:35;;;;;;;0.80;0.20;;;5.10;55.10;;;;;;5026483;28;20184;-71
2022/02/12 00:22:01;;;;;;;0.30;0.10;;;5.20;55.20;;;;;;5027493;28;20459;-71
2022/02/12 00:24:27;;;;;;;0.32;0.10;;;5.00;55.70;;;;;;5028291;28;20529;-71
2022/02/12 00:26:52;;;;;;;0.30;0.10;;;5.00;55.50;;;;;;5024535;28;20033;-71
2022/02/12 00:29:18;;;;;;;0.80;0.30;;;5.40;54.70;;;;;;5028411;28;20041;-72
2022/02/12 00:31:44;;;;;;;0.20;0.03;;;5.20;55.30;;;;;;5023224;28;20625;-71
2022/02/12 00:34:09;;;;;;;0.77;0.22;;;5.10;55.50;;;;;;5025488;28;20499;-72
2022/02/12 00:36:36;;;;;;;1.05;0.40;;;5.10;56.60;;;;;;5028143;28;20029;-71
2022/02/12 00:39:05;;;;;;;0.40;0.20;;;4.80;56.20;;;;;;5027690;28;20033;-71
2022/02/12 00:41:32;;;;;;;0.40;0.17;;;5.10;55.80;;;;;;5025833;28;20044;-71
2022/02/12 00:43:58;;;;;;;0.20;0.20;;;5.00;56.80;;;;;;5019850;28;20408;-71
2022/02/12 00:46:23;;;;;;;0.70;0.30;;;5.10;56.70;;;;;;5020743;28;20040;-71
2022/02/12 00:48:49;;;;;;;0.32;0.22;;;4.70;57.30;;;;;;5022909;28;20033;-72
2022/02/12 00:51:15;;;;;;;0.93;0.52;;;5.00;56.30;;;;;;5023504;28;20044;-71
2022/02/12 00:53:41;;;;;;;0.05;0.05;;;5.30;55.90;;;;;;5023093;28;20187;-72
2022/02/12 00:56:07;;;;;;;0.85;0.15;;;5.40;55.70;;;;;;5025380;28;20025;-71
2022/02/12 00:58:33;;;;;;;0.85;0.22;;;5.60;55.10;;;;;;5030753;28;20136;-71
2022/02/12 01:00:59;;;;;;;0.98;0.25;;;5.30;56.70;;;;;;5031892;28;20124;-71
2022/02/12 01:03:24;;;;;;;0.90;0.40;;;5.30;56.20;;;;;;5032261;28;20041;-71
2022/02/12 01:05:50;;;;;;;0.88;0.20;;;5.20;56.10;;;;;;5030123;28;20025;-71
2022/02/12 01:08:16;;;;;;;0.30;0.17;;;5.30;55.90;;;;;;5031739;28;20033;-71
2022/02/12 01:10:42;;;;;;;0.20;0.10;;;5.40;55.70;;;;;;5032726;28;20036;-71
2022/02/12 01:13:08;;;;;;;0.77;0.50;;;5.30;55.50;;;;;;5027301;28;20025;-71
2022/02/12 01:15:33;;;;;;;0.28;0.10;;;5.30;56.50;;;;;;5024634;28;20386;-71
2022/02/12 01:18:00;;;;;;;0.60;0.17;;;5.20;56.20;;;;;;5030750;28;20534;-71
2022/02/12 01:20:26;;;;;;;0.17;0.17;;;5.10;57.00;;;;;;5032676;28;20068;-71
2022/02/12 01:22:52;;;;;;;0.75;0.30;;;5.00;56.00;;;;;;5029061;28;20037;-71
2022/02/12 01:25:18;;;;;;;0.45;0.22;;;5.10;56.10;;;;;;5031317;28;20036;-71
2022/02/12 01:27:43;;;;;;;0.35;0.15;;;5.00;56.40;;;;;;5028196;28;20041;-71
2022/02/12 01:30:10;;;;;;;0.70;0.30;;;4.90;56.90;;;;;;5030277;28;20029;-71
2022/02/12 01:32:37;;;;;;;0.90;0.13;;;5.10;56.20;;;;;;5031776;28;20033;-71
2022/02/12 01:35:03;;;;;;;0.60;0.28;;;5.10;56.70;;;;;;5031398;28;20108;-71
2022/02/12 01:37:29;;;;;;;1.00;0.20;;;4.90;57.50;;;;;;5031949;28;20026;-71
2022/02/12 01:39:55;;;;;;;1.08;0.30;;;4.80;57.60;;;;;;5030759;28;20087;-71
2022/02/12 01:42:21;;;;;;;3.00;0.50;;;4.90;56.70;;;;;;5030300;28;20380;-71
2022/02/12 01:44:47;;;;;;;0.93;0.43;;;4.70;58.40;;;;;;5030888;28;20043;-71
2022/02/12 01:47:13;;;;;;;0.52;0.30;;;4.60;58.70;;;;;;5029871;28;20458;-71
2022/02/12 01:49:41;;;;;;;0.98;0.30;;;4.50;59.60;;;;;;5030457;28;20068;-72
2022/02/12 01:52:10;;;;;;;1.00;0.30;;;4.20;60.80;;;;;;5030761;28;20091;-71
2022/02/12 01:54:36;;;;;;;0.65;0.28;;;3.90;60.70;;;;;;5030726;28;20035;-71
2022/02/12 01:57:03;;;;;;;0.65;0.22;;;3.70;61.10;;;;;;5028615;28;20033;-71
2022/02/12 01:59:30;;;;;;;0.68;0.30;;;3.70;60.00;;;;;;5031509;28;20046;-71
2022/02/12 02:01:56;;;;;;;0.10;0.10;;;4.00;59.10;;;;;;5030414;28;20065;-71
2022/02/12 02:04:22;;;;;;;0.93;0.32;;;4.10;59.60;;;;;;5031400;28;20069;-72
2022/02/12 02:06:48;;;;;;;0.22;0.15;;;4.00;59.60;;;;;;5031282;28;20072;-71
2022/02/12 02:09:19;;;;;;;0.88;0.25;;;3.80;61.10;;;;;;5030522;28;20388;-71
2022/02/12 02:11:45;;;;;;;2.50;0.40;;;3.60;60.50;;;;;;5030247;28;20116;-71
2022/02/12 02:14:12;;;;;;;1.55;0.57;;;3.50;61.10;;;;;;5022711;28;20562;-71
2022/02/12 02:16:40;;;;;;;6.82;2.15;;;3.50;60.60;;;;;;5030655;28;20427;-71
2022/02/12 02:19:06;;;;;;;1.52;0.60;;;3.40;60.60;;;;;;5032268;28;20060;-71
2022/02/12 02:21:35;;;;;;;1.35;0.38;;;3.20;62.30;;;;;;5029409;28;20034;-72
2022/02/12 02:24:01;;;;;;;4.10;1.60;;;2.90;62.00;;;;;;5025982;28;20519;-73
2022/02/12 02:26:27;;;;;;;0.57;0.17;;;3.10;61.90;;;;;;5023032;28;20026;-73
2022/02/12 02:28:52;;;;;;;2.15;0.68;;;3.20;61.00;;;;;;5027537;28;20036;-72
2022/02/12 02:31:18;;;;;;;0.85;0.40;;;3.40;61.00;;;;;;5029007;28;20021;-73
2022/02/12 02:33:44;;;;;;;0.15;0.10;;;3.40;61.00;;;;;;5030388;28;20033;-73
2022/02/12 02:36:10;;;;;;;0.55;0.20;;;3.60;60.90;;;;;;5030395;28;20087;-73
2022/02/12 02:38:36;;;;;;;2.90;1.70;;;3.50;60.70;;;;;;5031245;28;20503;-72
2022/02/12 02:41:02;;;;;;;2.33;0.63;;;3.40;61.00;;;;;;5025069;28;20033;-72
2022/02/12 02:43:28;;;;;;;4.35;0.40;;;3.30;62.10;;;;;;5032272;28;20033;-73
2022/02/12 02:45:53;;;;;;;0.63;0.25;;;3.00;62.90;;;;;;5035571;28;20112;-73
2022/02/12 02:48:19;;;;;;;0.73;0.30;;;3.00;62.10;;;;;;5033072;28;20076;-73
2022/02/12 02:56:15;;;;;;;0.80;0.40;;;3.50;60.60;;;;;;5033082;28;20099;-73
2022/02/12 02:58:46;;;;;;;0.70;0.32;;;3.40;60.80;;;;;;5034087;28;20511;-73
2022/02/12 03:01:13;;;;;;;1.67;0.43;;;3.80;59.70;;;;;;5027069;28;20033;-71
2022/02/12 03:03:41;;;;;;;0.40;0.20;;;3.40;60.80;;;;;;5034720;28;20041;-71
2022/02/12 03:06:08;;;;;;;1.65;0.65;;;3.60;59.90;;;;;;5033589;28;20033;-71
2022/02/12 03:08:34;;;;;;;4.10;1.35;;;3.40;62.60;;;;;;5032596;28;20765;-71
2022/02/12 03:11:01;;;;;;;0.65;0.30;;;3.60;61.10;;;;;;5028643;28;20087;-72
2022/02/12 03:13:27;;;;;;;0.73;0.30;;;3.80;60.40;;;;;;5034653;28;20022;-71
2022/02/12 03:15:53;;;;;;;0.75;0.43;;;3.20;61.30;;;;;;5033603;28;20037;-72
2022/02/12 03:18:19;;;;;;;0.70;0.47;;;3.60;60.10;;;;;;5035740;28;20365;-71
2022/02/12 03:20:44;;;;;;;1.20;0.43;;;3.30;61.00;;;;;;5028776;28;20091;-71
2022/02/12 03:23:11;;;;;;;1.73;0.50;;;3.20;61.10;;;;;;5033587;28;20104;-71
2022/02/12 03:25:37;;;;;;;1.42;0.60;;;3.00;61.80;;;;;;5034046;28;20029;-71
2022/02/12 03:28:04;;;;;;;1.05;0.32;;;2.60;62.60;;;;;;5033166;28;20038;-72
2022/02/12 03:30:35;;;;;;;1.52;0.30;;;3.20;61.20;;;;;;5033377;28;20067;-71
2022/02/12 03:33:01;;;;;;;1.08;0.20;;;2.70;62.30;;;;;;5033334;28;20037;-71
2022/02/12 03:35:27;;;;;;;0.45;0.10;;;2.70;62.30;;;;;;5033403;28;20120;-72
2022/02/12 03:38:04;;;;;;;0.50;0.28;;;2.70;62.20;;;;;;5033883;28;20136;-73
2022/02/12 03:40:29;;;;;;;0.82;0.20;;;2.80;62.60;;;;;;5030425;28;20451;-71
2022/02/12 03:42:55;;;;;;;2.20;0.38;;;2.70;62.40;;;;;;5031034;28;20033;-71
2022/02/12 03:45:22;;;;;;;0.80;0.40;;;3.10;61.50;;;;;;5033413;28;20029;-71
2022/02/12 03:47:49;;;;;;;0.73;0.28;;;2.90;62.00;;;;;;5033692;28;20045;-71
2022/02/12 03:50:15;;;;;;;1.27;0.57;;;3.00;62.20;;;;;;5032508;28;20125;-71
2022/02/12 03:52:41;;;;;;;2.83;0.57;;;3.10;61.40;;;;;;5031158;28;20108;-71
2022/02/12 03:55:08;;;;;;;0.80;0.20;;;3.50;61.20;;;;;;5031905;28;20029;-72
2022/02/12 03:57:36;;;;;;;1.10;0.20;;;2.90;62.40;;;;;;5033136;28;20039;-72
2022/02/12 04:00:11;;;;;;;0.65;0.35;;;2.70;62.80;;;;;;5032786;28;20025;-71
2022/02/12 04:02:37;;;;;;;1.17;0.22;;;3.20;61.20;;;;;;5027754;28;20065;-73
2022/02/12 04:05:04;;;;;;;0.38;0.10;;;3.50;60.70;;;;;;5025310;28;20399;-73
2022/02/12 04:07:29;;;;;;;2.60;0.30;;;3.50;60.80;;;;;;5026076;28;20040;-72
2022/02/12 04:09:55;;;;;;;0.50;0.28;;;3.10;61.80;;;;;;5024886;28;20041;-72
2022/02/12 04:12:21;;;;;;;2.03;0.38;;;2.90;62.40;;;;;;5024981;28;20033;-73
2022/02/12 04:14:46;;;;;;;0.82;0.28;;;3.00;61.90;;;;;;5019175;28;20049;-72
2022/02/12 04:17:12;;;;;;;0.57;0.40;;;3.10;61.60;;;;;;5026489;28;20106;-72
2022/02/12 04:19:38;;;;;;;0.63;0.22;;;3.20;61.50;;;;;;5025581;28;20030;-72
2022/02/12 04:22:03;;;;;;;1.45;0.30;;;3.20;61.40;;;;;;5026010;28;20037;-73
2022/02/12 04:24:29;;;;;;;0.70;0.30;;;3.30;61.40;;;;;;5028422;28;20047;-73
2022/02/12 04:26:55;;;;;;;0.95;0.50;;;3.30;61.10;;;;;;5031431;28;20028;-73
2022/02/12 04:29:21;;;;;;;1.02;0.32;;;3.40;61.00;;;;;;5032823;28;20029;-73
2022/02/12 04:31:46;;;;;;;0.57;0.25;;;3.10;61.80;;;;;;5027974;28;20505;-72
2022/02/12 04:34:12;;;;;;;0.40;0.20;;;2.60;62.40;;;;;;5021175;28;20068;-73
2022/02/12 04:36:38;;;;;;;0.73;0.20;;;2.50;62.80;;;;;;5024452;28;20474;-72
2022/02/12 04:39:04;;;;;;;0.20;0.13;;;2.20;63.30;;;;;;5027459;28;20630;-72
2022/02/12 04:41:29;;;;;;;0.98;0.30;;;2.00;63.80;;;;;;5028146;28;20116;-72
2022/02/12 04:43:55;;;;;;;0.88;0.30;;;2.00;64.40;;;;;;5026621;28;20124;-72
2022/02/12 04:46:21;;;;;;;0.70;0.25;;;2.00;64.10;;;;;;5027173;28;20088;-72
2022/02/12 04:48:49;;;;;;;1.35;0.75;;;1.70;64.50;;;;;;5028528;28;20062;-72
2022/02/12 04:51:18;;;;;;;0.85;0.22;;;1.70;64.40;;;;;;5027639;28;20041;-72
2022/02/12 04:53:44;;;;;;;1.83;0.30;;;1.50;65.00;;;;;;5027676;28;20432;-72
2022/02/12 04:56:10;;;;;;;1.00;0.30;;;1.70;64.40;;;;;;5018351;28;20033;-72
2022/02/12 04:58:35;;;;;;;0.47;0.20;;;1.80;64.40;;;;;;5031607;28;20470;-72
2022/02/12 05:01:01;;;;;;;0.98;0.20;;;1.80;64.00;;;;;;5024230;28;20095;-72
2022/02/12 05:03:26;;;;;;;1.25;0.65;;;2.00;63.60;;;;;;5024516;28;20113;-72
2022/02/12 05:05:52;;;;;;;1.23;0.40;;;2.10;63.40;;;;;;5023574;28;20372;-73
2022/02/12 05:08:18;;;;;;;1.08;0.60;;;2.10;63.20;;;;;;5026258;28;20430;-72
2022/02/12 05:10:44;;;;;;;1.30;0.40;;;2.00;63.70;;;;;;5020569;28;20028;-73
2022/02/12 05:13:09;;;;;;;0.68;0.30;;;1.80;63.90;;;;;;5019538;28;20479;-72
2022/02/12 05:15:35;;;;;;;1.75;0.45;;;1.70;64.20;;;;;;5020833;28;20103;-72
2022/02/12 05:18:01;;;;;;;0.95;0.30;;;1.80;63.90;;;;;;5021986;28;20540;-72
2022/02/12 05:20:26;;;;;;;0.70;0.22;;;2.00;63.70;;;;;;5020164;28;20029;-72
2022/02/12 05:22:52;;;;;;;2.78;0.30;;;1.60;64.40;;;;;;5000735;28;20033;-72
2022/02/12 05:25:18;;;;;;;1.83;0.30;;;1.10;66.10;;;;;;5023608;28;20377;-72
2022/02/12 05:27:44;;;;;;;2.67;0.52;;;1.10;66.10;;;;;;5025269;28;20068;-73
2022/02/12 05:30:10;;;;;;;1.58;0.40;;;1.30;65.40;;;;;;5024348;28;20479;-72
2022/02/12 05:32:36;;;;;;;0.40;0.20;;;1.10;65.70;;;;;;5024698;28;20049;-72
2022/02/12 05:35:02;;;;;;;0.30;0.22;;;1.00;66.00;;;;;;5018380;28;20030;-72
2022/02/12 05:37:28;;;;;;;1.92;0.25;;;0.70;66.70;;;;;;5017874;28;20049;-73
2022/02/12 05:39:53;;;;;;;0.20;0.20;;;0.90;66.50;;;;;;5018965;28;20064;-72
2022/02/12 05:42:19;;;;;;;0.77;0.13;;;0.70;66.90;;;;;;5002275;28;20094;-73
2022/02/12 05:44:45;;;;;;;0.28;0.13;;;0.40;67.40;;;;;;5018507;28;20168;-73
2022/02/12 05:47:10;;;;;;;1.23;0.40;;;0.50;67.80;;;;;;5018278;28;20091;-72
2022/02/12 05:49:36;;;;;;;0.60;0.40;;;0.50;67.50;;;;;;5018826;28;20025;-72
2022/02/12 05:52:02;;;;;;;0.65;0.40;;;0.40;68.00;;;;;;5019159;28;20105;-72
2022/02/12 05:54:28;;;;;;;0.63;0.20;;;0.40;68.30;;;;;;5022675;28;20035;-72
2022/02/12 05:56:53;;;;;;;0.63;0.30;;;0.50;67.50;;;;;;5024451;28;20029;-72
2022/02/12 05:59:19;;;;;;;0.65;0.30;;;0.60;67.20;;;;;;5023227;28;20638;-72
2022/02/12 06:01:45;;;;;;;1.00;0.40;;;0.80;66.20;;;;;;5023662;28;20029;-72
2022/02/12 06:04:11;;;;;;;0.52;0.30;;;1.10;65.30;;;;;;5021267;28;20053;-73
2022/02/12 06:06:36;;;;;;;0.60;0.40;;;0.90;66.00;;;;;;5016217;28;20037;-72
2022/02/12 06:09:02;;;;;;;2.13;0.52;;;0.80;66.20;;;;;;5023513;28;20045;-72
2022/02/12 06:11:28;;;;;;;0.70;0.40;;;0.60;67.10;;;;;;5027578;28;20037;-72
2022/02/12 06:13:54;;;;;;;0.65;0.40;;;0.50;67.60;;;;;;5021043;28;20033;-72
2022/02/12 06:16:20;;;;;;;1.85;0.55;;;0.50;67.40;;;;;;5023629;28;20029;-72
2022/02/12 06:18:47;;;;;;;1.55;0.47;;;0.50;67.60;;;;;;5020887;28;20139;-72
2022/02/12 06:21:12;;;;;;;0.63;0.20;;;0.70;66.30;;;;;;5023455;28;20029;-72
2022/02/12 06:23:38;;;;;;;1.08;0.40;;;1.10;65.20;;;;;;5023202;28;21113;-72
2022/02/12 06:26:05;;;;;;;0.63;0.30;;;0.90;66.80;;;;;;5023434;28;20060;-73
2022/02/12 06:28:31;;;;;;;0.55;0.20;;;1.10;65.40;;;;;;5014264;28;20049;-72
2022/02/12 06:30:56;;;;;;;2.85;0.50;;;1.20;64.80;;;;;;5020320;28;20033;-72
2022/02/12 06:33:22;;;;;;;1.10;0.38;;;0.90;65.80;;;;;;5013163;28;20091;-71
2022/02/12 06:35:48;;;;;;;0.65;0.30;;;0.90;65.80;;;;;;5016894;28;21050;-71
2022/02/12 06:38:13;;;;;;;2.30;0.52;;;0.80;65.90;;;;;;5020474;28;20553;-71
2022/02/12 06:40:40;;;;;;;1.27;0.50;;;0.50;66.80;;;;;;5018805;28;20033;-71
2022/02/12 06:43:06;;;;;;;1.88;0.65;;;0.50;67.40;;;;;;5019564;28;20123;-72
2022/02/12 06:45:33;;;;;;;0.90;0.20;;;0.70;66.70;;;;;;5019330;28;20488;-71
2022/02/12 06:47:59;;;;;;;0.73;0.40;;;0.50;67.20;;;;;;5018755;28;20048;-72
2022/02/12 06:50:24;;;;;;;0.90;0.60;;;0.60;67.10;;;;;;5018890;28;20476;-73
2022/02/12 06:52:50;;;;;;;1.45;0.50;;;0.60;66.80;;;;;;5021856;28;20041;-73
2022/02/12 06:55:16;;;;;;;1.17;0.30;;;0.60;67.50;;;;;;5021241;28;20503;-73
2022/02/12 06:57:41;;;;;;;1.52;0.47;;;0.60;67.30;;;;;;5019691;28;20076;-73
2022/02/12 07:00:08;;;;;;;1.35;0.60;;;0.60;67.10;;;;;;5022046;28;20652;-73
2022/02/12 07:02:33;;;;;;;4.93;0.65;;;0.60;67.00;;;;;;5016249;28;20068;-73
2022/02/12 07:05:00;;;;;;;1.70;0.40;;;0.50;67.20;;;;;;5021845;28;20126;-72
2022/02/12 07:07:26;;;;;;;1.15;0.60;;;0.40;68.00;;;;;;5024709;28;20056;-73
2022/02/12 07:09:51;;;;;;;1.05;0.40;;;0.50;67.70;;;;;;5023502;28;20432;-74
2022/02/12 07:12:18;;;;;;;0.60;0.30;;;0.50;67.70;;;;;;5022562;28;20029;-73
2022/02/12 07:14:44;;;;;;;2.08;0.30;;;0.60;67.20;;;;;;5026341;28;20061;-70
2022/02/12 07:17:28;;;;;;;0.50;0.20;;;1.00;66.10;;;;;;5025131;28;20095;-72
2022/02/12 07:19:53;;;;;;;0.98;0.13;;;1.20;65.40;;;;;;5016957;28;20587;-71
2022/02/12 07:22:25;;;;;;;0.38;0.30;;;1.20;65.20;;;;;;5020582;28;20112;-71
2022/02/12 07:24:54;;;;;;;1.15;0.20;;;1.10;65.60;;;;;;5021925;28;20038;-72
2022/02/12 07:27:20;;;;;;;0.40;0.30;;;1.20;65.60;;;;;;5019060;28;20034;-71
2022/02/12 07:29:45;;;;;;;0.63;0.30;;;1.20;65.50;;;;;;5023202;28;20494;-71
2022/02/12 07:32:11;;;;;;;0.73;0.40;;;1.30;65.70;;;;;;5020480;28;20037;-72
2022/02/12 07:34:37;;;;;;;0.93;0.22;;;1.20;65.60;;;;;;5026709;28;20042;-72
2022/02/12 07:37:03;;;;;;;1.55;0.82;;;1.20;65.50;;;;;;5025898;28;20033;-71
2022/02/12 07:39:28;;;;;;;2.00;0.30;;;1.20;65.60;;;;;;5025152;28;20661;-71
2022/02/12 07:41:54;;;;;;;0.88;0.43;;;1.30;65.60;;;;;;5026350;28;20057;-73
2022/02/12 07:44:20;;;;;;;0.85;0.35;;;1.10;66.20;;;;;;5022599;28;20064;-71
2022/02/12 07:46:46;;;;;;;1.38;0.68;;;1.10;65.90;;;;;;5027056;28;20056;-71
2022/02/12 07:49:11;;;;;;;3.13;1.42;;;1.30;65.50;;;;;;5025714;28;20506;-72
2022/02/12 07:51:37;;;;;;;3.35;1.17;;;1.30;65.80;;;;;;5026882;28;20034;-71
2022/02/12 07:54:03;;;;;;;3.55;1.30;;;1.50;65.80;;;;;;5023833;28;20029;-72
2022/02/12 07:56:30;;;;;;;1.23;0.60;;;1.40;66.10;;;;;;5026562;28;20037;-71
2022/02/12 07:58:56;;;;;;;4.78;0.90;;;1.60;65.50;;;;;;5027167;28;20050;-72
2022/02/12 08:01:22;;;;;;;2.03;0.52;;;1.50;66.60;;;;;;5025691;28;20031;-72
2022/02/12 08:03:47;;;;;;;1.70;0.60;;;1.40;66.10;;;;;;5026159;28;20042;-71
2022/02/12 08:08:57;;;;;;;1.13;0.70;;;1.60;65.30;;;;;;5018267;28;20044;-72
2022/02/12 08:11:25;;;;;;;2.28;0.50;;;1.80;64.70;;;;;;5024897;28;20476;-72
2022/02/12 08:13:51;;;;;;;0.50;0.32;;;1.90;64.30;;;;;;5026101;28;20072;-72
2022/02/12 08:16:17;;;;;;;4.55;1.05;;;2.30;63.20;;;;;;5025627;28;20072;-72
2022/02/12 08:18:43;;;;;;;2.13;0.80;;;2.40;62.90;;;;;;5025693;28;20578;-71
2022/02/12 08:21:08;;;;;;;1.08;0.50;;;2.50;62.40;;;;;;5026063;28;20044;-71
2022/02/12 08:23:34;;;;;;;1.15;0.50;;;2.70;62.20;;;;;;5024548;28;20047;-71
2022/02/12 08:26:00;;;;;;;1.23;0.50;;;2.70;62.20;;;;;;5025804;28;20042;-72
2022/02/12 08:28:25;;;;;;;0.50;0.40;;;2.70;62.10;;;;;;5025731;28;20053;-71
2022/02/12 08:30:54;;;;;;;4.53;0.90;;;2.70;62.10;;;;;;5026188;28;20407;-72
2022/02/12 08:33:20;;;;;;;4.28;1.85;;;2.60;63.50;;;;;;5023694;28;20053;-72
2022/02/12 08:35:46;;;;;;;5.75;1.77;;;2.40;64.00;;;;;;5026033;28;20078;-72
2022/02/12 08:38:12;;;;;;;5.38;2.45;;;2.30;64.80;;;;;;5022261;28;20025;-72
2022/02/12 08:40:37;;;;;;;6.75;1.23;;;2.10;65.50;;;;;;5026818;28;20495;-72
2022/02/12 08:43:03;;;;;;;3.50;1.52;;;2.00;65.30;;;;;;5026534;28;20045;-72
2022/02/12 08:45:29;;;;;;;2.10;0.70;;;2.10;65.30;;;;;;5028162;28;20144;-71
2022/02/12 08:47:55;;;;;;;1.45;0.60;;;2.10;64.30;;;;;;5024578;28;20033;-71
2022/02/12 08:50:21;;;;;;;1.10;0.50;;;2.30;64.50;;;;;;5028219;28;20065;-71
2022/02/12 08:52:47;;;;;;;1.85;0.70;;;2.20;64.70;;;;;;5020789;28;20033;-71
2022/02/12 08:55:14;;;;;;;0.85;0.30;;;2.20;65.20;;;;;;5023264;28;20045;-71
2022/02/12 08:57:39;;;;;;;0.60;0.43;;;2.10;65.20;;;;;;5022428;28;20029;-72
2022/02/12 09:00:08;;;;;;;1.35;0.55;;;2.20;65.20;;;;;;5025958;28;20649;-72
2022/02/12 09:02:34;;;;;;;1.83;0.88;;;2.20;65.80;;;;;;5027840;28;20026;-72
2022/02/12 09:05:00;;;;;;;1.67;0.77;;;2.10;65.50;;;;;;5026883;28;20051;-72
2022/02/12 09:07:25;;;;;;;1.35;0.50;;;2.20;65.40;;;;;;5025521;28;20227;-74
2022/02/12 09:09:52;;;;;;;1.00;0.50;;;2.20;65.20;;;;;;5025083;28;20041;-74
2022/02/12 09:12:18;;;;;;;1.60;0.55;;;2.20;65.80;;;;;;5021377;28;20033;-73
2022/02/12 09:14:43;;;;;;;1.00;0.47;;;2.30;66.20;;;;;;5017974;28;20026;-73
2022/02/12 09:17:09;;;;;;;1.17;0.50;;;2.30;65.30;;;;;;5028039;28;20317;-71
2022/02/12 09:19:35;;;;;;;1.38;0.50;;;2.40;64.30;;;;;;5026147;28;20598;-71
2022/02/12 09:22:02;;;;;;;1.05;0.43;;;2.50;63.50;;;;;;5027532;28;20101;-72
2022/02/12 09:24:27;;;;;;;12.88;2.03;;;2.70;63.90;;;;;;5022307;28;20035;-72
2022/02/12 09:26:53;;;;;;;1.08;0.47;;;2.90;66.70;;;;;;5022899;28;20037;-72
2022/02/12 09:29:18;;;;;;;1.20;0.50;;;3.30;63.20;;;;;;5026432;28;20064;-72
2022/02/12 09:31:44;;;;;;;1.02;0.40;;;3.40;62.20;;;;;;5027194;28;20112;-74
2022/02/12 09:34:10;;;;;;;1.55;0.80;;;3.50;62.80;;;;;;5027491;28;20032;-73
2022/02/12 09:36:37;;;;;;;2.70;0.52;;;3.50;66.10;;;;;;5025496;28;20021;-72
2022/02/12 09:39:03;;;;;;;1.80;0.95;;;3.50;63.20;;;;;;5023926;28;20627;-71
2022/02/12 09:41:28;;;;;;;1.73;0.63;;;3.50;64.00;;;;;;5024670;28;20036;-74
2022/02/12 09:43:55;;;;;;;3.65;0.93;;;3.50;63.00;;;;;;5019138;28;20045;-74
2022/02/12 09:46:44;;;;;;;4.25;0.50;;;3.40;63.20;;;;;;5022469;28;20025;-75
2022/02/12 09:49:10;;;;;;;0.90;0.43;;;3.60;63.80;;;;;;5024744;28;20045;-75
2022/02/12 09:51:40;;;;;;;1.35;0.70;;;3.60;62.40;;;;;;5023557;28;20029;-74
2022/02/12 09:54:05;;;;;;;1.70;0.65;;;3.60;62.30;;;;;;5022399;28;20025;-74
2022/02/12 09:56:34;;;;;;;1.05;0.50;;;3.70;62.30;;;;;;5018259;28;20044;-73
2022/02/12 09:59:00;;;;;;;1.60;0.50;;;3.70;62.40;;;;;;5020370;28;20049;-74
2022/02/12 10:01:26;;;;;;;1.23;0.60;;;3.80;62.40;;;;;;5020592;28;20025;-74
2022/02/12 10:03:52;;;;;;;0.88;0.40;;;3.90;62.70;;;;;;5021897;28;20526;-71
2022/02/12 10:06:41;;;;;;;2.53;0.70;;;3.90;62.70;;;;;;5026225;28;20475;-74
2022/02/12 10:09:07;;;;;;;1.65;0.82;;;4.00;61.70;;;;;;5025350;28;20030;-73
2022/02/12 10:11:59;;;;;;;2.33;0.80;;;4.00;61.70;;;;;;5022608;28;20036;-74
2022/02/12 10:14:26;;;;;;;2.08;0.80;;;4.10;62.20;;;;;;5016869;28;20041;-74
2022/02/12 10:16:55;;;;;;;2.22;0.80;;;4.20;62.00;;;;;;5019327;28;20099;-73
2022/02/12 10:19:43;;;;;;;2.35;0.77;;;4.30;60.50;;;;;;5022392;28;21302;-73
2022/02/12 10:22:17;;;;;;;1.40;0.52;;;4.40;61.20;;;;;;5024350;28;20037;-74
2022/02/12 10:24:50;;;;;;;2.95;0.82;;;4.60;60.80;;;;;;5023689;28;20383;-72
2022/02/12 10:27:16;;;;;;;3.13;1.75;;;4.50;60.60;;;;;;5022634;28;20083;-77
2022/02/12 10:29:45;;;;;;;3.33;1.52;;;4.80;61.40;;;;;;5019053;28;20029;-73
2022/02/12 10:32:12;;;;;;;4.38;1.90;;;4.90;60.30;;;;;;5024915;28;20025;-73
2022/02/12 10:34:43;;;;;;;3.00;1.05;;;4.90;60.30;;;;;;5022741;28;20034;-73
2022/02/12 10:37:11;;;;;;;3.92;0.82;;;4.90;61.60;;;;;;5023178;28;20369;-74
2022/02/12 10:40:00;;;;;;;2.33;0.85;;;4.90;60.30;;;;;;5018650;28;20032;-73
2022/02/12 10:42:29;;;;;;;1.77;0.75;;;4.90;60.50;;;;;;5018619;28;20029;-71
2022/02/12 10:44:55;;;;;;;1.17;0.65;;;4.90;60.10;;;;;;5022721;28;20046;-71
2022/02/12 10:47:22;;;;;;;3.05;1.80;;;4.90;60.40;;;;;;5023897;28;20033;-72
2022/02/12 10:49:48;;;;;;;4.40;0.77;;;5.00;61.60;;;;;;5020900;28;20409;-71
2022/02/12 10:52:15;;;;;;;2.83;0.98;;;5.20;61.10;;;;;;5020951;28;20034;-73
2022/02/12 10:54:50;;;;;;;6.53;1.17;;;5.40;61.20;;;;;;5020961;28;20610;-70
2022/02/12 10:57:17;;;;;;;2.53;0.90;;;5.50;60.60;;;;;;5019823;28;20407;-73
2022/02/12 10:59:44;;;;;;;3.85;0.70;;;5.60;60.50;;;;;;5016486;28;20033;-73
2022/02/12 11:02:15;;;;;;;2.83;1.20;;;5.50;60.90;;;;;;5016242;28;20412;-73
2022/02/12 11:04:43;;;;;;;1.50;0.90;;;5.50;60.00;;;;;;5020865;28;20049;-75
2022/02/12 11:07:13;;;;;;;2.00;0.70;;;5.50;60.40;;;;;;5020739;28;20038;-74
2022/02/12 11:09:39;;;;;;;1.63;1.00;;;5.60;60.10;;;;;;5026032;28;20030;-73
2022/02/12 11:12:06;;;;;;;4.53;1.10;;;5.70;61.20;;;;;;5023885;28;20044;-76
2022/02/12 11:14:33;;;;;;;4.97;1.40;;;5.90;61.40;;;;;;5020737;28;20017;-75
2022/02/12 11:17:22;;;;;;;3.17;1.10;;;6.10;61.50;;;;;;5025955;28;20033;-75
2022/02/12 11:19:49;;;;;;;2.67;1.10;;;6.50;61.70;;;;;;5025031;28;20060;-75
2022/02/12 11:22:16;;;;;;;3.25;1.08;;;6.60;62.10;;;;;;5028817;28;20025;-74
2022/02/12 11:24:44;;;;;;;2.88;1.38;;;6.70;60.50;;;;;;5027535;28;20092;-74
2022/02/12 11:27:22;;;;;;;2.05;0.98;;;6.60;60.10;;;;;;5028699;28;20029;-74
2022/02/12 11:30:14;;;;;;;4.43;0.80;;;6.50;59.70;;;;;;5028222;28;20128;-74
2022/02/12 11:32:46;;;;;;;5.45;0.90;;;6.50;60.50;;;;;;5029327;28;20109;-74
2022/02/12 11:35:12;;;;;;;4.10;0.80;;;6.70;60.70;;;;;;5029506;28;20033;-75
2022/02/12 11:37:41;;;;;;;1.45;0.70;;;6.80;59.10;;;;;;5027200;28;20052;-74
2022/02/12 11:40:15;;;;;;;3.22;0.90;;;6.80;59.50;;;;;;5030524;28;20033;-74
2022/02/12 11:42:44;;;;;;;6.90;1.05;;;6.90;59.80;;;;;;5028580;28;20030;-75
2022/02/12 11:45:16;;;;;;;2.38;0.75;;;7.00;59.30;;;;;;5029973;28;20044;-74
2022/02/12 11:48:18;;;;;;;2.28;0.90;;;7.00;58.40;;;;;;5027601;28;20029;-74
2022/02/12 11:50:47;;;;;;;3.08;1.00;;;7.10;59.00;;;;;;5022653;28;20804;-74
2022/02/12 11:53:33;;;;;;;1.55;0.73;;;7.30;58.70;;;;;;5028681;28;20484;-74
2022/02/12 11:56:10;;;;;;;2.03;0.90;;;7.40;57.80;;;;;;5029113;28;20022;-74
2022/02/12 11:58:42;;;;;;;3.60;0.88;;;7.30;57.40;;;;;;5027008;28;20488;-74
2022/02/12 12:01:25;;;;;;;1.90;0.70;;;7.40;57.90;;;;;;5028590;28;20033;-74
2022/02/12 12:04:15;;;;;;;3.30;1.45;;;7.50;58.20;;;;;;5029883;28;20050;-74
2022/02/12 12:07:00;;;;;;;2.55;1.10;;;7.90;58.40;;;;;;5017531;28;20102;-74
2022/02/12 12:09:32;;;;;;;2.65;0.90;;;7.70;57.10;;;;;;5028739;28;20033;-73
2022/02/12 12:12:10;;;;;;;3.88;1.50;;;7.50;57.60;;;;;;5026275;28;20037;-74
2022/02/12 12:14:39;;;;;;;1.92;0.80;;;7.80;58.40;;;;;;5027955;28;20068;-73
2022/02/12 12:17:06;;;;;;;1.80;0.70;;;7.90;57.40;;;;;;5028544;28;20083;-73
2022/02/12 12:19:37;;;;;;;1.85;0.80;;;8.10;58.40;;;;;;5029612;28;20038;-74
2022/02/12 12:22:05;;;;;;;3.53;1.20;;;8.20;57.30;;;;;;5028288;28;20391;-73
2022/02/12 12:24:32;;;;;;;4.25;0.90;;;8.30;57.30;;;;;;5026041;28;20044;-73
2022/02/12 12:26:58;;;;;;;1.65;0.70;;;8.10;55.50;;;;;;5027357;28;20083;-73
2022/02/12 12:32:18;;;;;;;10.35;1.75;;;7.90;55.70;;;;;;5026214;28;20088;-73
2022/02/12 12:34:51;;;;;;;2.40;0.95;;;8.10;56.50;;;;;;5025921;28;20037;-73
2022/02/12 12:37:22;;;;;;;3.13;1.07;;;7.90;55.30;;;;;;5027742;28;20968;-73
2022/02/12 12:39:48;;;;;;;5.00;1.05;;;7.90;55.90;;;;;;5027419;28;20357;-73
2022/02/12 12:42:25;;;;;;;2.92;1.30;;;8.00;55.70;;;;;;5028134;28;20040;-73
2022/02/12 12:45:14;;;;;;;4.45;2.35;;;8.20;56.10;;;;;;5029038;28;20059;-75
2022/02/12 12:47:48;;;;;;;2.05;0.93;;;8.40;55.40;;;;;;5028374;28;20503;-75
2022/02/12 12:50:14;;;;;;;6.40;4.15;;;8.50;55.50;;;;;;5028243;28;20040;-75
2022/02/12 12:52:40;;;;;;;6.25;2.85;;;8.40;55.30;;;;;;5027739;28;20105;-74
2022/02/12 12:55:13;;;;;;;26.90;20.38;;;8.60;55.20;;;;;;5028364;28;20116;-75
2022/02/12 12:57:42;;;;;;;7.33;2.03;;;8.60;54.90;;;;;;5024040;28;20042;-73
2022/02/12 13:00:16;;;;;;;9.45;1.48;;;8.50;55.50;;;;;;5028891;28;20025;-73
2022/02/12 13:02:55;;;;;;;5.85;2.75;;;8.60;56.80;;;;;;5028591;28;20108;-73
2022/02/12 13:05:26;;;;;;;3.60;1.73;;;8.70;56.10;;;;;;5024149;28;20392;-73
2022/02/12 13:07:55;;;;;;;1.80;1.00;;;8.90;55.80;;;;;;5024871;28;20096;-74
2022/02/12 13:10:26;;;;;;;2.15;0.90;;;8.80;56.30;;;;;;5027396;28;20029;-75